• Join FlightAware (Why Join?)
  • Login
  • US Flag GB Flag 
01:11 EDT


 

Airport Tracker/Info


-or-


 

Live Flight TrackerFlight Track Log ✈ GJS3618 ✈ 12-May-2013 ✈ KDEN - KOKC

Flight Track Log - Related Links

Times and Time Zones

All times are in EDT time to prevent confusion due to time zone crossing. See the GJS3618 flight status page for this flight to view local times or setup timezone preferences in your user account.

Time Position Orientation Groundspeed Altitude Reporting Facility
EDT Latitude Longitude Course Direction KTS MPH feet Rate Location/Type
13:19 39.8733 -104.6000 113° Southeast 176 203 6,600  Level Denver Center
13:20 39.8508 -104.5206 110° East 220 253 8,600 1,860 Climbing Denver Center
13:21 39.8186 -104.4239 113° Southeast 289 333 10,500 1,680 Climbing Denver Center
13:22 39.6863 -104.0950 108° East  Level FlightAware Approximate
13:22 39.7819 -104.3156 114° Southeast 327 376 12,100  Level Denver Center
13:23 39.6316 -103.9605 110° East  Level FlightAware Approximate
13:23 39.7364 -104.1811 114° Southeast 375 432 14,100  Level Denver Center
13:24 39.5894 -103.8180 113° Southeast  Level FlightAware Approximate
13:24 39.6886 -104.0472 115° Southeast 407 468 15,700  Level Denver Center
13:25 39.6344 -103.8972 115° Southeast 426 490 17,500 1,560 Climbing Denver Center
13:26 39.5792 -103.7564 117° Southeast 437 503 19,000 1,620 Climbing Denver Center
13:28 39.5425 -103.6075 108° East 417 480 20,900 1,740 Climbing Denver Center
13:29 39.5053 -103.4647 109° East 431 496 22,600 1,560 Climbing Denver Center
13:30 39.4603 -103.2972 109° East 438 504 24,200 1,380 Climbing Denver Center
13:31 39.4214 -103.1536 109° East 441 507 25,500 1,260 Climbing Denver Center
13:32 39.3761 -102.9833 109° East 446 513 26,800 1,020 Climbing Denver Center
13:33 39.3364 -102.8350 109° East 451 519 27,700 960 Climbing Denver Center
13:34 39.2897 -102.6606 109° East 460 529 28,900 1,080 Climbing Denver Center
13:35 39.2489 -102.5125 110° East 457 526 30,000 1,080 Climbing Denver Center
13:36 39.2094 -102.3644 109° East 457 526 31,200 1,200 Climbing Denver Center
13:37 39.1619 -102.1942 110° East 452 520 32,500 840 Climbing Denver Center
13:38 39.1169 -102.0500 112° Southeast 454 522 33,000 240 Climbing Denver Center
13:39 39.0128 -101.9058 133° Southeast 498 573 33,000  Level Denver Center
13:40 38.9117 -101.7953 140° Southeast 499 574 33,000  Level Denver Center
13:41 38.7950 -101.6669 139° Southeast 496 571 33,000  Level Denver Center
13:42 38.6931 -101.5578 140° Southeast 497 572 33,000  Level Denver Center
13:43 38.5753 -101.4286 139° Southeast 499 574 33,000  Level Denver Center
13:44 38.4722 -101.3186 140° Southeast 503 579 33,000  Level Denver Center
13:45 38.3531 -101.1886 139° Southeast 505 581 33,000  Level Denver Center
13:46 38.2531 -101.0756 138° Southeast 502 578 33,000  Level Denver Center
13:47 38.1586 -100.9556 135° Southeast 500 575 33,000  Level Denver Center
13:48 38.0481 -100.8161 135° Southeast 499 574 33,000  Level Denver Center
13:49 38.0000 -100.7547 135° Southeast 500 575 33,000  Level Kansas City Center
13:50 37.8889 -100.6139 135° Southeast 501 577 33,000  Level Kansas City Center
13:51 37.7922 -100.4942 136° Southeast 502 578 33,000  Level Kansas City Center
13:52 37.6803 -100.3564 136° Southeast 500 575 33,000  Level Kansas City Center
13:53 37.5853 -100.2392 136° Southeast 497 572 33,000  Level Kansas City Center
13:54 37.4903 -100.1219 136° Southeast 498 573 33,000 -60 Level Kansas City Center
13:55 37.3797 -99.9869 136° Southeast 496 571 32,900 -540 Descending Kansas City Center
13:56 37.2861 -99.8750 136° Southeast 489 563 31,900 -1,020 Descending Kansas City Center
13:57 37.1811 -99.7453 135° Southeast 477 549 30,800 -1,020 Descending Kansas City Center
13:58 37.0922 -99.6372 136° Southeast 468 539 29,800 -1,140 Descending Kansas City Center
13:59 36.9953 -99.5211 136° Southeast 474 545 28,500 -1,260 Descending Kansas City Center
14:00 36.8969 -99.4042 136° Southeast 483 556 27,200 -1,440 Descending Kansas City Center
14:01 36.7792 -99.2622 136° Southeast 487 560 25,600 -1,500 Descending Kansas City Center
14:02 36.6822 -99.1469 136° Southeast 481 554 24,100 -1,440 Descending Kansas City Center
14:03 36.5858 -99.0333 137° Southeast 477 549 22,700 -1,380 Descending Kansas City Center
14:04 36.4911 -98.9203 136° Southeast 471 542 21,300 -1,380 Descending Kansas City Center
14:05 36.3956 -98.8083 137° Southeast 469 540 19,900 -1,380 Descending Kansas City Center
14:06 36.3019 -98.6981 136° Southeast 463 533 18,500 -1,140 Descending Kansas City Center
14:07 36.2158 -98.5958 136° Southeast 434 499 17,600 -1,140 Descending Kansas City Center
14:08 36.1350 -98.5022 137° Southeast 403 464 16,200 -1,440 Descending Kansas City Center
14:09 36.0550 -98.4075 136° Southeast 396 456 14,700 -1,440 Descending Kansas City Center
14:10 35.9733 -98.3136 137° Southeast 398 458 13,300 -1,500 Descending Kansas City Center
14:11 35.8769 -98.2014 137° Southeast 395 455 11,600 -1,500 Descending Kansas City Center
14:12 35.8522 -98.1742 138° Southeast 384 442 11,300 -840 Descending Fort Worth Center
14:12 35.8211 -98.1225 127° Southeast 382 440 10,900 -720 Descending Fort Worth Center
14:13 35.7964 -98.0789 125° Southeast 324 373 10,600 -1,140 Descending Fort Worth Center
14:13 35.7717 -98.0325 123° Southeast 355 409 9,800 -1,680 Descending Fort Worth Center
14:14 35.7489 -97.9942 126° Southeast 301 346 8,900 -1,740 Descending Fort Worth Center
14:14 35.7325 -97.9453 112° Southeast 322 371 8,100 -1,680 Descending Fort Worth Center
14:15 35.7033 -97.9094 135° Southeast 296 341 7,200 -1,620 Descending Fort Worth Center
14:15 35.6847 -97.8736 123° Southeast 301 346 6,500 -1,740 Descending Fort Worth Center
14:16 35.6536 -97.8147 123° Southeast 286 329 5,300 -1,440 Descending Fort Worth Center
14:16 35.6433 -97.7917 119° Southeast 289 333 5,100 -300 Descending Fort Worth Center
14:17 35.6164 -97.7378 122° Southeast 260 299 5,000 -120 Descending Fort Worth Center
14:17 35.6061 -97.7175 122° Southeast 277 319 5,000 -360 Level Fort Worth Center
14:18 35.6019 -97.6611 95° East 243 280 4,700 -720 Descending Fort Worth Center
14:18 35.6000 -97.6331 95° East 245 282 4,300 -720 Descending Fort Worth Center
14:19 35.5667 -97.6100 151° Southeast 217 250 4,000 -300 Descending Fort Worth Center
14:19 35.5478 -97.6050 168° South 203 234 4,000 -540 Level Fort Worth Center
14:20 35.5125 -97.6075 183° South 182 209 3,500 -840 Descending Fort Worth Center
14:20 35.4978 -97.6072 179° South 177 204 3,200 -840 Descending Fort Worth Center
14:21 35.4728 -97.6097 185° South 133 153 2,700 -900 Descending Fort Worth Center